sensor_id;sensor_type;location;lat;lon;timestamp;P1;durP1;ratioP1;P2;durP2;ratioP2
73283;SDS011;61519;60.050;18.582;2024-03-23T00:53:41;2.60;;;0.95;;
73283;SDS011;61519;60.050;18.582;2024-03-23T00:56:06;4.23;;;1.00;;
73283;SDS011;61519;60.050;18.582;2024-03-23T00:58:32;2.27;;;0.70;;
73283;SDS011;61519;60.050;18.582;2024-03-23T01:00:57;2.97;;;0.73;;
73283;SDS011;61519;60.050;18.582;2024-03-23T01:03:22;3.75;;;0.77;;
73283;SDS011;61519;60.050;18.582;2024-03-23T01:05:48;2.90;;;0.77;;
73283;SDS011;61519;60.050;18.582;2024-03-23T01:08:17;8.07;;;0.90;;
73283;SDS011;61519;60.050;18.582;2024-03-23T01:10:43;3.97;;;0.80;;
73283;SDS011;61519;60.050;18.582;2024-03-23T01:13:08;2.97;;;0.90;;
73283;SDS011;61519;60.050;18.582;2024-03-23T01:15:33;3.27;;;0.87;;
73283;SDS011;61519;60.050;18.582;2024-03-23T01:17:58;2.70;;;0.70;;
73283;SDS011;61519;60.050;18.582;2024-03-23T01:20:24;7.67;;;1.00;;
73283;SDS011;61519;60.050;18.582;2024-03-23T01:22:49;2.33;;;0.70;;
73283;SDS011;61519;60.050;18.582;2024-03-23T01:25:15;5.63;;;1.23;;
73283;SDS011;61519;60.050;18.582;2024-03-23T01:27:40;2.60;;;0.60;;
73283;SDS011;61519;60.050;18.582;2024-03-23T01:30:05;2.37;;;0.67;;
73283;SDS011;61519;60.050;18.582;2024-03-23T01:32:32;2.67;;;0.80;;
73283;SDS011;61519;60.050;18.582;2024-03-23T01:34:57;2.20;;;0.60;;
73283;SDS011;61519;60.050;18.582;2024-03-23T01:37:23;5.57;;;0.97;;
73283;SDS011;61519;60.050;18.582;2024-03-23T01:39:48;5.10;;;0.80;;
73283;SDS011;61519;60.050;18.582;2024-03-23T01:42:13;3.93;;;0.70;;
73283;SDS011;61519;60.050;18.582;2024-03-23T01:44:39;5.60;;;0.70;;
73283;SDS011;61519;60.050;18.582;2024-03-23T01:47:05;2.35;;;0.80;;
73283;SDS011;61519;60.050;18.582;2024-03-23T01:49:31;3.47;;;0.90;;
73283;SDS011;61519;60.050;18.582;2024-03-23T01:51:58;5.32;;;1.00;;
73283;SDS011;61519;60.050;18.582;2024-03-23T01:54:24;4.20;;;0.95;;
73283;SDS011;61519;60.050;18.582;2024-03-23T01:56:50;4.20;;;0.90;;
73283;SDS011;61519;60.050;18.582;2024-03-23T01:59:15;6.03;;;1.25;;
73283;SDS011;61519;60.050;18.582;2024-03-23T02:01:41;5.00;;;1.03;;
73283;SDS011;61519;60.050;18.582;2024-03-23T02:04:06;2.60;;;0.80;;
73283;SDS011;61519;60.050;18.582;2024-03-23T02:06:32;3.30;;;1.10;;
73283;SDS011;61519;60.050;18.582;2024-03-23T02:08:58;3.25;;;0.98;;
73283;SDS011;61519;60.050;18.582;2024-03-23T02:11:24;3.93;;;0.87;;
73283;SDS011;61519;60.050;18.582;2024-03-23T02:13:50;4.40;;;0.60;;
73283;SDS011;61519;60.050;18.582;2024-03-23T02:16:15;2.70;;;0.90;;
73283;SDS011;61519;60.050;18.582;2024-03-23T02:18:40;2.80;;;0.90;;
73283;SDS011;61519;60.050;18.582;2024-03-23T02:21:06;2.63;;;0.70;;
73283;SDS011;61519;60.050;18.582;2024-03-23T02:23:31;6.83;;;0.90;;
73283;SDS011;61519;60.050;18.582;2024-03-23T02:25:56;5.67;;;0.90;;
73283;SDS011;61519;60.050;18.582;2024-03-23T02:28:22;4.87;;;0.93;;
73283;SDS011;61519;60.050;18.582;2024-03-23T02:30:51;2.65;;;0.88;;
73283;SDS011;61519;60.050;18.582;2024-03-23T02:33:17;3.20;;;0.88;;
73283;SDS011;61519;60.050;18.582;2024-03-23T02:35:45;3.28;;;0.80;;
73283;SDS011;61519;60.050;18.582;2024-03-23T02:38:12;3.03;;;0.60;;
73283;SDS011;61519;60.050;18.582;2024-03-23T02:40:37;5.97;;;1.40;;
73283;SDS011;61519;60.050;18.582;2024-03-23T02:43:04;2.10;;;0.77;;
73283;SDS011;61519;60.050;18.582;2024-03-23T02:45:29;4.77;;;0.80;;
73283;SDS011;61519;60.050;18.582;2024-03-23T02:47:55;5.47;;;1.00;;
73283;SDS011;61519;60.050;18.582;2024-03-23T02:50:20;5.47;;;1.27;;
73283;SDS011;61519;60.050;18.582;2024-03-23T02:52:46;5.47;;;1.07;;
73283;SDS011;61519;60.050;18.582;2024-03-23T02:55:12;4.25;;;0.80;;
73283;SDS011;61519;60.050;18.582;2024-03-23T02:57:37;4.00;;;1.00;;
73283;SDS011;61519;60.050;18.582;2024-03-23T03:00:03;1.83;;;0.73;;
73283;SDS011;61519;60.050;18.582;2024-03-23T03:02:30;3.75;;;1.00;;
73283;SDS011;61519;60.050;18.582;2024-03-23T03:04:55;5.60;;;1.03;;
73283;SDS011;61519;60.050;18.582;2024-03-23T03:07:20;7.17;;;1.13;;
73283;SDS011;61519;60.050;18.582;2024-03-23T03:09:46;4.90;;;1.37;;
73283;SDS011;61519;60.050;18.582;2024-03-23T03:12:11;4.10;;;1.00;;
73283;SDS011;61519;60.050;18.582;2024-03-23T03:14:36;5.80;;;0.87;;
73283;SDS011;61519;60.050;18.582;2024-03-23T03:17:02;3.13;;;0.90;;
73283;SDS011;61519;60.050;18.582;2024-03-23T03:19:27;2.87;;;0.93;;
73283;SDS011;61519;60.050;18.582;2024-03-23T03:21:53;3.83;;;0.93;;
73283;SDS011;61519;60.050;18.582;2024-03-23T03:24:18;3.80;;;0.87;;
73283;SDS011;61519;60.050;18.582;2024-03-23T03:26:44;6.60;;;0.80;;
73283;SDS011;61519;60.050;18.582;2024-03-23T03:29:09;3.07;;;0.87;;
73283;SDS011;61519;60.050;18.582;2024-03-23T03:31:36;6.00;;;1.08;;
73283;SDS011;61519;60.050;18.582;2024-03-23T03:34:02;8.73;;;1.50;;
73283;SDS011;61519;60.050;18.582;2024-03-23T03:36:27;2.33;;;0.93;;
73283;SDS011;61519;60.050;18.582;2024-03-23T03:38:53;3.53;;;1.23;;
73283;SDS011;61519;60.050;18.582;2024-03-23T03:41:18;7.20;;;1.30;;
73283;SDS011;61519;60.050;18.582;2024-03-23T03:43:44;3.80;;;0.90;;
73283;SDS011;61519;60.050;18.582;2024-03-23T03:46:09;1.97;;;0.53;;
73283;SDS011;61519;60.050;18.582;2024-03-23T03:48:35;4.05;;;0.90;;
73283;SDS011;61519;60.050;18.582;2024-03-23T03:51:01;3.35;;;0.90;;
73283;SDS011;61519;60.050;18.582;2024-03-23T03:53:26;4.80;;;0.80;;
73283;SDS011;61519;60.050;18.582;2024-03-23T03:55:52;4.57;;;1.27;;
73283;SDS011;61519;60.050;18.582;2024-03-23T03:58:17;5.73;;;1.00;;
73283;SDS011;61519;60.050;18.582;2024-03-23T04:00:42;5.97;;;1.20;;
73283;SDS011;61519;60.050;18.582;2024-03-23T04:03:08;4.32;;;0.90;;
73283;SDS011;61519;60.050;18.582;2024-03-23T04:05:33;4.57;;;1.17;;
73283;SDS011;61519;60.050;18.582;2024-03-23T04:07:58;6.82;;;0.88;;
73283;SDS011;61519;60.050;18.582;2024-03-23T04:10:24;4.23;;;0.93;;
73283;SDS011;61519;60.050;18.582;2024-03-23T04:12:49;6.60;;;1.00;;
73283;SDS011;61519;60.050;18.582;2024-03-23T04:15:15;6.68;;;1.10;;
73283;SDS011;61519;60.050;18.582;2024-03-23T04:17:41;5.43;;;1.30;;
73283;SDS011;61519;60.050;18.582;2024-03-23T04:20:07;11.33;;;1.27;;
73283;SDS011;61519;60.050;18.582;2024-03-23T04:22:34;7.20;;;1.13;;
73283;SDS011;61519;60.050;18.582;2024-03-23T04:24:59;7.53;;;1.40;;
73283;SDS011;61519;60.050;18.582;2024-03-23T04:27:25;3.97;;;0.93;;
73283;SDS011;61519;60.050;18.582;2024-03-23T04:29:50;9.73;;;1.20;;
73283;SDS011;61519;60.050;18.582;2024-03-23T04:32:16;6.30;;;0.80;;
73283;SDS011;61519;60.050;18.582;2024-03-23T04:34:42;3.23;;;0.80;;
73283;SDS011;61519;60.050;18.582;2024-03-23T04:37:08;2.58;;;0.90;;
73283;SDS011;61519;60.050;18.582;2024-03-23T04:39:37;4.05;;;0.80;;
73283;SDS011;61519;60.050;18.582;2024-03-23T04:42:03;3.53;;;0.83;;
73283;SDS011;61519;60.050;18.582;2024-03-23T04:44:29;6.43;;;0.95;;
73283;SDS011;61519;60.050;18.582;2024-03-23T04:46:55;4.70;;;0.88;;
73283;SDS011;61519;60.050;18.582;2024-03-23T04:49:21;6.07;;;1.15;;
73283;SDS011;61519;60.050;18.582;2024-03-23T04:51:46;5.03;;;1.30;;
73283;SDS011;61519;60.050;18.582;2024-03-23T04:54:12;3.77;;;0.90;;
73283;SDS011;61519;60.050;18.582;2024-03-23T04:56:38;2.33;;;0.80;;
73283;SDS011;61519;60.050;18.582;2024-03-23T04:59:03;4.43;;;0.70;;
73283;SDS011;61519;60.050;18.582;2024-03-23T05:01:30;8.02;;;1.00;;
73283;SDS011;61519;60.050;18.582;2024-03-23T05:03:56;2.95;;;1.30;;
73283;SDS011;61519;60.050;18.582;2024-03-23T05:06:22;6.75;;;0.90;;
73283;SDS011;61519;60.050;18.582;2024-03-23T05:08:47;3.93;;;0.80;;
73283;SDS011;61519;60.050;18.582;2024-03-23T05:11:12;7.43;;;1.20;;
73283;SDS011;61519;60.050;18.582;2024-03-23T05:13:38;7.17;;;1.20;;
73283;SDS011;61519;60.050;18.582;2024-03-23T05:16:03;3.70;;;0.90;;
73283;SDS011;61519;60.050;18.582;2024-03-23T05:18:29;3.67;;;1.02;;
73283;SDS011;61519;60.050;18.582;2024-03-23T05:20:58;5.10;;;0.80;;
73283;SDS011;61519;60.050;18.582;2024-03-23T05:23:24;4.28;;;0.93;;
73283;SDS011;61519;60.050;18.582;2024-03-23T05:25:50;3.00;;;0.88;;
73283;SDS011;61519;60.050;18.582;2024-03-23T05:28:16;4.70;;;1.08;;
73283;SDS011;61519;60.050;18.582;2024-03-23T05:30:42;6.33;;;1.03;;
73283;SDS011;61519;60.050;18.582;2024-03-23T05:33:07;5.00;;;1.00;;
73283;SDS011;61519;60.050;18.582;2024-03-23T05:35:33;6.25;;;1.17;;
73283;SDS011;61519;60.050;18.582;2024-03-23T05:37:58;4.57;;;0.90;;
73283;SDS011;61519;60.050;18.582;2024-03-23T05:40:25;4.77;;;1.07;;
73283;SDS011;61519;60.050;18.582;2024-03-23T05:42:51;5.45;;;1.73;;
73283;SDS011;61519;60.050;18.582;2024-03-23T05:45:20;5.97;;;1.85;;
73283;SDS011;61519;60.050;18.582;2024-03-23T05:47:47;5.67;;;1.27;;
73283;SDS011;61519;60.050;18.582;2024-03-23T05:50:13;6.03;;;1.27;;
73283;SDS011;61519;60.050;18.582;2024-03-23T05:52:39;5.07;;;1.35;;
73283;SDS011;61519;60.050;18.582;2024-03-23T05:55:04;5.63;;;1.40;;
73283;SDS011;61519;60.050;18.582;2024-03-23T05:57:31;4.18;;;1.05;;
73283;SDS011;61519;60.050;18.582;2024-03-23T05:59:56;5.30;;;1.63;;
73283;SDS011;61519;60.050;18.582;2024-03-23T06:02:22;6.77;;;1.63;;
73283;SDS011;61519;60.050;18.582;2024-03-23T06:04:47;4.55;;;1.27;;
73283;SDS011;61519;60.050;18.582;2024-03-23T06:07:13;5.47;;;1.43;;
73283;SDS011;61519;60.050;18.582;2024-03-23T06:09:39;6.33;;;1.70;;
73283;SDS011;61519;60.050;18.582;2024-03-23T06:12:05;4.72;;;1.38;;
73283;SDS011;61519;60.050;18.582;2024-03-23T06:14:31;6.32;;;1.98;;
73283;SDS011;61519;60.050;18.582;2024-03-23T06:16:57;7.37;;;2.00;;
73283;SDS011;61519;60.050;18.582;2024-03-23T06:19:23;5.55;;;1.58;;
73283;SDS011;61519;60.050;18.582;2024-03-23T06:21:48;7.07;;;1.83;;
73283;SDS011;61519;60.050;18.582;2024-03-23T06:24:13;8.13;;;1.80;;
73283;SDS011;61519;60.050;18.582;2024-03-23T06:26:39;6.33;;;1.93;;
73283;SDS011;61519;60.050;18.582;2024-03-23T06:29:04;5.10;;;2.07;;
73283;SDS011;61519;60.050;18.582;2024-03-23T06:31:30;5.80;;;1.80;;
73283;SDS011;61519;60.050;18.582;2024-03-23T06:33:55;5.63;;;2.00;;
73283;SDS011;61519;60.050;18.582;2024-03-23T06:36:21;7.00;;;1.93;;
73283;SDS011;61519;60.050;18.582;2024-03-23T06:38:46;6.30;;;2.17;;
73283;SDS011;61519;60.050;18.582;2024-03-23T06:41:12;5.60;;;1.55;;
73283;SDS011;61519;60.050;18.582;2024-03-23T06:43:37;7.67;;;1.80;;
73283;SDS011;61519;60.050;18.582;2024-03-23T06:46:03;6.33;;;1.90;;
73283;SDS011;61519;60.050;18.582;2024-03-23T06:48:29;6.40;;;2.05;;
73283;SDS011;61519;60.050;18.582;2024-03-23T06:50:55;6.67;;;1.93;;
73283;SDS011;61519;60.050;18.582;2024-03-23T06:53:22;5.72;;;1.50;;
73283;SDS011;61519;60.050;18.582;2024-03-23T06:55:50;7.43;;;1.40;;
73283;SDS011;61519;60.050;18.582;2024-03-23T06:58:16;6.88;;;1.95;;
73283;SDS011;61519;60.050;18.582;2024-03-23T07:00:42;7.00;;;1.40;;
73283;SDS011;61519;60.050;18.582;2024-03-23T07:03:07;6.50;;;1.70;;
73283;SDS011;61519;60.050;18.582;2024-03-23T07:05:32;9.03;;;1.53;;
73283;SDS011;61519;60.050;18.582;2024-03-23T07:07:58;6.63;;;1.50;;
73283;SDS011;61519;60.050;18.582;2024-03-23T07:10:23;5.27;;;1.10;;
73283;SDS011;61519;60.050;18.582;2024-03-23T07:12:49;7.28;;;1.25;;
73283;SDS011;61519;60.050;18.582;2024-03-23T07:15:14;5.87;;;1.47;;
73283;SDS011;61519;60.050;18.582;2024-03-23T07:17:41;7.38;;;1.63;;
73283;SDS011;61519;60.050;18.582;2024-03-23T07:20:06;8.97;;;1.50;;
73283;SDS011;61519;60.050;18.582;2024-03-23T07:22:35;7.85;;;2.00;;
73283;SDS011;61519;60.050;18.582;2024-03-23T07:25:01;7.40;;;1.77;;
73283;SDS011;61519;60.050;18.582;2024-03-23T07:27:26;7.75;;;1.90;;
73283;SDS011;61519;60.050;18.582;2024-03-23T07:29:52;7.27;;;2.30;;
73283;SDS011;61519;60.050;18.582;2024-03-23T07:32:17;7.80;;;2.20;;
73283;SDS011;61519;60.050;18.582;2024-03-23T07:34:43;6.00;;;1.67;;
73283;SDS011;61519;60.050;18.582;2024-03-23T07:37:09;6.63;;;1.75;;
73283;SDS011;61519;60.050;18.582;2024-03-23T07:39:36;6.75;;;1.90;;
73283;SDS011;61519;60.050;18.582;2024-03-23T07:42:02;7.40;;;1.90;;
73283;SDS011;61519;60.050;18.582;2024-03-23T07:44:27;7.65;;;2.00;;
73283;SDS011;61519;60.050;18.582;2024-03-23T07:46:53;5.33;;;1.60;;
73283;SDS011;61519;60.050;18.582;2024-03-23T07:49:18;6.30;;;1.53;;
73283;SDS011;61519;60.050;18.582;2024-03-23T07:51:43;6.23;;;1.53;;
73283;SDS011;61519;60.050;18.582;2024-03-23T07:54:09;9.18;;;1.83;;
73283;SDS011;61519;60.050;18.582;2024-03-23T07:56:35;5.37;;;2.07;;
73283;SDS011;61519;60.050;18.582;2024-03-23T07:59:00;7.50;;;2.50;;
73283;SDS011;61519;60.050;18.582;2024-03-23T08:01:28;6.43;;;1.63;;
73283;SDS011;61519;60.050;18.582;2024-03-23T08:03:53;5.07;;;1.77;;
73283;SDS011;61519;60.050;18.582;2024-03-23T08:06:19;6.10;;;2.27;;
73283;SDS011;61519;60.050;18.582;2024-03-23T08:08:48;7.40;;;2.28;;
73283;SDS011;61519;60.050;18.582;2024-03-23T08:11:14;6.07;;;2.30;;
73283;SDS011;61519;60.050;18.582;2024-03-23T08:13:40;6.90;;;2.30;;
73283;SDS011;61519;60.050;18.582;2024-03-23T08:16:06;6.15;;;2.10;;
73283;SDS011;61519;60.050;18.582;2024-03-23T08:18:33;7.55;;;2.53;;
73283;SDS011;61519;60.050;18.582;2024-03-23T08:20:59;7.40;;;2.80;;
73283;SDS011;61519;60.050;18.582;2024-03-23T08:23:26;8.05;;;2.70;;
73283;SDS011;61519;60.050;18.582;2024-03-23T08:25:57;8.93;;;3.00;;
73283;SDS011;61519;60.050;18.582;2024-03-23T08:28:23;7.20;;;2.70;;
73283;SDS011;61519;60.050;18.582;2024-03-23T08:30:48;7.13;;;2.90;;
73283;SDS011;61519;60.050;18.582;2024-03-23T08:33:14;6.80;;;2.77;;
73283;SDS011;61519;60.050;18.582;2024-03-23T08:35:40;6.68;;;2.95;;
73283;SDS011;61519;60.050;18.582;2024-03-23T08:38:05;7.32;;;3.42;;
73283;SDS011;61519;60.050;18.582;2024-03-23T08:40:31;7.47;;;3.00;;
73283;SDS011;61519;60.050;18.582;2024-03-23T08:42:56;7.63;;;3.00;;
73283;SDS011;61519;60.050;18.582;2024-03-23T08:45:21;5.90;;;2.70;;
73283;SDS011;61519;60.050;18.582;2024-03-23T08:47:47;7.30;;;3.00;;
73283;SDS011;61519;60.050;18.582;2024-03-23T08:50:12;6.37;;;3.10;;
73283;SDS011;61519;60.050;18.582;2024-03-23T08:52:38;7.73;;;3.37;;
73283;SDS011;61519;60.050;18.582;2024-03-23T08:55:03;6.70;;;2.90;;
73283;SDS011;61519;60.050;18.582;2024-03-23T08:57:29;6.57;;;3.22;;
73283;SDS011;61519;60.050;18.582;2024-03-23T08:59:54;8.05;;;3.67;;
73283;SDS011;61519;60.050;18.582;2024-03-23T09:02:20;6.10;;;3.50;;
73283;SDS011;61519;60.050;18.582;2024-03-23T09:04:45;6.53;;;3.07;;
73283;SDS011;61519;60.050;18.582;2024-03-23T09:07:11;6.57;;;2.70;;
73283;SDS011;61519;60.050;18.582;2024-03-23T09:09:38;5.80;;;2.60;;
73283;SDS011;61519;60.050;18.582;2024-03-23T09:12:04;7.13;;;3.20;;
73283;SDS011;61519;60.050;18.582;2024-03-23T09:14:30;7.17;;;2.87;;
73283;SDS011;61519;60.050;18.582;2024-03-23T09:16:55;7.03;;;2.70;;
73283;SDS011;61519;60.050;18.582;2024-03-23T09:19:20;7.97;;;3.10;;
73283;SDS011;61519;60.050;18.582;2024-03-23T09:21:45;6.03;;;2.00;;
73283;SDS011;61519;60.050;18.582;2024-03-23T09:24:11;7.57;;;2.73;;
73283;SDS011;61519;60.050;18.582;2024-03-23T09:26:36;8.03;;;2.30;;
73283;SDS011;61519;60.050;18.582;2024-03-23T09:29:01;7.40;;;2.10;;
73283;SDS011;61519;60.050;18.582;2024-03-23T09:31:27;5.60;;;1.97;;
73283;SDS011;61519;60.050;18.582;2024-03-23T09:33:52;6.63;;;2.03;;
73283;SDS011;61519;60.050;18.582;2024-03-23T09:36:17;7.20;;;2.10;;
73283;SDS011;61519;60.050;18.582;2024-03-23T09:38:43;7.30;;;2.10;;
73283;SDS011;61519;60.050;18.582;2024-03-23T09:41:08;8.13;;;1.93;;
73283;SDS011;61519;60.050;18.582;2024-03-23T09:43:34;7.13;;;2.00;;
73283;SDS011;61519;60.050;18.582;2024-03-23T09:46:01;7.28;;;1.80;;
73283;SDS011;61519;60.050;18.582;2024-03-23T09:48:27;9.70;;;1.92;;
73283;SDS011;61519;60.050;18.582;2024-03-23T09:50:53;9.70;;;1.80;;
73283;SDS011;61519;60.050;18.582;2024-03-23T09:53:18;7.33;;;2.17;;
73283;SDS011;61519;60.050;18.582;2024-03-23T09:55:44;7.23;;;2.20;;
73283;SDS011;61519;60.050;18.582;2024-03-23T09:58:13;5.80;;;1.63;;
73283;SDS011;61519;60.050;18.582;2024-03-23T10:00:40;7.00;;;2.08;;
73283;SDS011;61519;60.050;18.582;2024-03-23T10:03:05;7.47;;;2.17;;
73283;SDS011;61519;60.050;18.582;2024-03-23T10:05:31;8.60;;;1.98;;
73283;SDS011;61519;60.050;18.582;2024-03-23T10:08:04;7.80;;;1.90;;
73283;SDS011;61519;60.050;18.582;2024-03-23T10:10:42;8.45;;;1.80;;
73283;SDS011;61519;60.050;18.582;2024-03-23T10:13:10;7.25;;;2.72;;
73283;SDS011;61519;60.050;18.582;2024-03-23T10:15:38;7.75;;;2.30;;
73283;SDS011;61519;60.050;18.582;2024-03-23T10:20:51;6.03;;;2.33;;
73283;SDS011;61519;60.050;18.582;2024-03-23T10:23:37;9.38;;;2.72;;
73283;SDS011;61519;60.050;18.582;2024-03-23T10:26:13;8.10;;;2.10;;
73283;SDS011;61519;60.050;18.582;2024-03-23T10:28:52;7.05;;;2.28;;
73283;SDS011;61519;60.050;18.582;2024-03-23T10:31:26;5.97;;;1.90;;
73283;SDS011;61519;60.050;18.582;2024-03-23T10:33:52;6.53;;;2.72;;
73283;SDS011;61519;60.050;18.582;2024-03-23T10:36:19;6.65;;;3.15;;
73283;SDS011;61519;60.050;18.582;2024-03-23T10:38:45;7.60;;;2.37;;
73283;SDS011;61519;60.050;18.582;2024-03-23T10:41:11;12.00;;;3.08;;
73283;SDS011;61519;60.050;18.582;2024-03-23T10:43:37;7.38;;;2.10;;
73283;SDS011;61519;60.050;18.582;2024-03-23T10:46:04;5.67;;;1.73;;
73283;SDS011;61519;60.050;18.582;2024-03-23T10:48:30;5.88;;;2.30;;
73283;SDS011;61519;60.050;18.582;2024-03-23T10:50:56;7.78;;;2.78;;
73283;SDS011;61519;60.050;18.582;2024-03-23T10:53:22;6.60;;;2.88;;
73283;SDS011;61519;60.050;18.582;2024-03-23T10:55:51;5.77;;;2.57;;
73283;SDS011;61519;60.050;18.582;2024-03-23T10:58:26;8.63;;;2.42;;
73283;SDS011;61519;60.050;18.582;2024-03-23T11:00:55;5.57;;;2.10;;
73283;SDS011;61519;60.050;18.582;2024-03-23T11:03:30;7.27;;;2.53;;
73283;SDS011;61519;60.050;18.582;2024-03-23T11:05:55;7.82;;;2.33;;
73283;SDS011;61519;60.050;18.582;2024-03-23T11:11:22;10.02;;;2.53;;
73283;SDS011;61519;60.050;18.582;2024-03-23T11:13:50;6.35;;;1.98;;
73283;SDS011;61519;60.050;18.582;2024-03-23T11:16:17;6.35;;;2.03;;
73283;SDS011;61519;60.050;18.582;2024-03-23T11:18:46;6.60;;;1.85;;
73283;SDS011;61519;60.050;18.582;2024-03-23T11:21:13;6.07;;;1.70;;
73283;SDS011;61519;60.050;18.582;2024-03-23T11:24:15;9.43;;;1.90;;
73283;SDS011;61519;60.050;18.582;2024-03-23T11:26:40;6.60;;;1.40;;
73283;SDS011;61519;60.050;18.582;2024-03-23T11:29:09;8.23;;;2.10;;
73283;SDS011;61519;60.050;18.582;2024-03-23T11:31:36;9.25;;;2.15;;
73283;SDS011;61519;60.050;18.582;2024-03-23T11:34:23;7.33;;;1.50;;
73283;SDS011;61519;60.050;18.582;2024-03-23T11:36:48;5.85;;;1.17;;
73283;SDS011;61519;60.050;18.582;2024-03-23T11:39:16;7.50;;;1.50;;
73283;SDS011;61519;60.050;18.582;2024-03-23T11:41:49;16.00;;;2.40;;
73283;SDS011;61519;60.050;18.582;2024-03-23T11:46:42;7.55;;;1.90;;
73283;SDS011;61519;60.050;18.582;2024-03-23T11:49:19;6.77;;;2.07;;
73283;SDS011;61519;60.050;18.582;2024-03-23T11:51:48;5.78;;;1.35;;
73283;SDS011;61519;60.050;18.582;2024-03-23T11:54:14;10.07;;;1.73;;
73283;SDS011;61519;60.050;18.582;2024-03-23T11:56:39;8.05;;;1.40;;
73283;SDS011;61519;60.050;18.582;2024-03-23T11:59:06;5.63;;;1.37;;
73283;SDS011;61519;60.050;18.582;2024-03-23T12:01:31;7.50;;;1.35;;
73283;SDS011;61519;60.050;18.582;2024-03-23T12:03:57;9.73;;;1.50;;
73283;SDS011;61519;60.050;18.582;2024-03-23T12:06:22;8.17;;;1.70;;
73283;SDS011;61519;60.050;18.582;2024-03-23T12:08:48;6.47;;;1.27;;
73283;SDS011;61519;60.050;18.582;2024-03-23T12:11:14;7.75;;;1.30;;
73283;SDS011;61519;60.050;18.582;2024-03-23T12:13:41;8.67;;;1.77;;
73283;SDS011;61519;60.050;18.582;2024-03-23T12:16:13;8.13;;;1.73;;
73283;SDS011;61519;60.050;18.582;2024-03-23T12:18:40;8.30;;;1.33;;
73283;SDS011;61519;60.050;18.582;2024-03-23T12:21:07;7.32;;;1.42;;
73283;SDS011;61519;60.050;18.582;2024-03-23T12:23:33;8.90;;;1.58;;
73283;SDS011;61519;60.050;18.582;2024-03-23T12:25:59;7.10;;;1.27;;
73283;SDS011;61519;60.050;18.582;2024-03-23T12:28:25;5.53;;;1.02;;
73283;SDS011;61519;60.050;18.582;2024-03-23T12:30:53;7.93;;;1.20;;
73283;SDS011;61519;60.050;18.582;2024-03-23T12:33:19;9.23;;;1.60;;
73283;SDS011;61519;60.050;18.582;2024-03-23T12:35:44;6.15;;;1.40;;
73283;SDS011;61519;60.050;18.582;2024-03-23T12:38:10;8.57;;;1.37;;
73283;SDS011;61519;60.050;18.582;2024-03-23T12:40:35;6.90;;;1.40;;
73283;SDS011;61519;60.050;18.582;2024-03-23T12:43:01;9.40;;;1.60;;
73283;SDS011;61519;60.050;18.582;2024-03-23T12:45:26;6.57;;;1.33;;
73283;SDS011;61519;60.050;18.582;2024-03-23T12:47:51;7.85;;;1.60;;
73283;SDS011;61519;60.050;18.582;2024-03-23T12:50:20;6.93;;;2.00;;
73283;SDS011;61519;60.050;18.582;2024-03-23T12:52:46;7.53;;;1.23;;
73283;SDS011;61519;60.050;18.582;2024-03-23T12:55:12;6.97;;;1.33;;
73283;SDS011;61519;60.050;18.582;2024-03-23T12:57:37;8.13;;;1.40;;
73283;SDS011;61519;60.050;18.582;2024-03-23T13:00:03;6.97;;;1.20;;
73283;SDS011;61519;60.050;18.582;2024-03-23T13:02:29;9.90;;;1.58;;
73283;SDS011;61519;60.050;18.582;2024-03-23T13:04:55;10.30;;;1.55;;
73283;SDS011;61519;60.050;18.582;2024-03-23T13:07:21;7.40;;;1.30;;
73283;SDS011;61519;60.050;18.582;2024-03-23T13:09:49;12.05;;;2.03;;
73283;SDS011;61519;60.050;18.582;2024-03-23T13:12:16;38.30;;;4.10;;
73283;SDS011;61519;60.050;18.582;2024-03-23T13:14:43;18.00;;;2.67;;
73283;SDS011;61519;60.050;18.582;2024-03-23T13:17:09;4.13;;;1.00;;
73283;SDS011;61519;60.050;18.582;2024-03-23T13:19:34;8.50;;;1.60;;
73283;SDS011;61519;60.050;18.582;2024-03-23T13:22:00;9.25;;;1.23;;
73283;SDS011;61519;60.050;18.582;2024-03-23T13:24:26;5.70;;;1.15;;
73283;SDS011;61519;60.050;18.582;2024-03-23T13:26:53;7.88;;;1.58;;
73283;SDS011;61519;60.050;18.582;2024-03-23T13:29:19;8.90;;;1.85;;
73283;SDS011;61519;60.050;18.582;2024-03-23T13:31:48;7.22;;;1.30;;
73283;SDS011;61519;60.050;18.582;2024-03-23T13:34:14;7.72;;;1.23;;
73283;SDS011;61519;60.050;18.582;2024-03-23T13:36:41;9.07;;;1.48;;
73283;SDS011;61519;60.050;18.582;2024-03-23T13:39:06;17.58;;;2.65;;
73283;SDS011;61519;60.050;18.582;2024-03-23T13:41:39;13.15;;;1.98;;
73283;SDS011;61519;60.050;18.582;2024-03-23T13:44:09;41.17;;;6.47;;
73283;SDS011;61519;60.050;18.582;2024-03-23T13:46:36;14.18;;;2.33;;
73283;SDS011;61519;60.050;18.582;2024-03-23T13:49:02;20.88;;;2.90;;
73283;SDS011;61519;60.050;18.582;2024-03-23T13:51:28;25.97;;;5.93;;
73283;SDS011;61519;60.050;18.582;2024-03-23T13:53:53;17.42;;;2.70;;
73283;SDS011;61519;60.050;18.582;2024-03-23T13:56:20;8.45;;;1.38;;
73283;SDS011;61519;60.050;18.582;2024-03-23T13:58:45;12.70;;;2.35;;
73283;SDS011;61519;60.050;18.582;2024-03-23T14:01:12;5.65;;;1.48;;
73283;SDS011;61519;60.050;18.582;2024-03-23T14:03:38;16.42;;;2.28;;
73283;SDS011;61519;60.050;18.582;2024-03-23T14:06:04;6.77;;;1.63;;
73283;SDS011;61519;60.050;18.582;2024-03-23T14:08:31;9.30;;;1.75;;
73283;SDS011;61519;60.050;18.582;2024-03-23T14:10:58;6.95;;;1.30;;
73283;SDS011;61519;60.050;18.582;2024-03-23T14:13:23;9.03;;;1.73;;
73283;SDS011;61519;60.050;18.582;2024-03-23T14:15:52;7.23;;;1.07;;
73283;SDS011;61519;60.050;18.582;2024-03-23T14:18:18;5.97;;;1.20;;
73283;SDS011;61519;60.050;18.582;2024-03-23T14:20:43;7.33;;;1.20;;
73283;SDS011;61519;60.050;18.582;2024-03-23T14:23:15;9.87;;;1.40;;
73283;SDS011;61519;60.050;18.582;2024-03-23T14:25:41;7.60;;;1.25;;
73283;SDS011;61519;60.050;18.582;2024-03-23T14:28:06;10.90;;;1.33;;
73283;SDS011;61519;60.050;18.582;2024-03-23T14:30:38;10.85;;;1.15;;
73283;SDS011;61519;60.050;18.582;2024-03-23T14:33:04;8.23;;;1.10;;
73283;SDS011;61519;60.050;18.582;2024-03-23T14:35:29;8.50;;;1.53;;
73283;SDS011;61519;60.050;18.582;2024-03-23T14:37:54;8.57;;;1.70;;
73283;SDS011;61519;60.050;18.582;2024-03-23T14:40:20;8.70;;;1.45;;
73283;SDS011;61519;60.050;18.582;2024-03-23T14:42:45;9.27;;;1.50;;
73283;SDS011;61519;60.050;18.582;2024-03-23T14:45:11;7.00;;;2.00;;
73283;SDS011;61519;60.050;18.582;2024-03-23T14:47:36;8.77;;;2.00;;
73283;SDS011;61519;60.050;18.582;2024-03-23T14:50:02;7.03;;;1.20;;
73283;SDS011;61519;60.050;18.582;2024-03-23T14:52:27;10.10;;;1.20;;
73283;SDS011;61519;60.050;18.582;2024-03-23T14:54:55;5.72;;;1.20;;
73283;SDS011;61519;60.050;18.582;2024-03-23T14:57:23;7.25;;;1.48;;
73283;SDS011;61519;60.050;18.582;2024-03-23T14:59:48;8.90;;;1.47;;
73283;SDS011;61519;60.050;18.582;2024-03-23T15:02:13;8.63;;;1.40;;
73283;SDS011;61519;60.050;18.582;2024-03-23T15:04:39;7.47;;;1.23;;
73283;SDS011;61519;60.050;18.582;2024-03-23T15:07:11;6.20;;;1.23;;
73283;SDS011;61519;60.050;18.582;2024-03-23T15:09:36;7.80;;;1.40;;
73283;SDS011;61519;60.050;18.582;2024-03-23T15:12:01;6.47;;;1.00;;
73283;SDS011;61519;60.050;18.582;2024-03-23T15:14:32;17.35;;;1.52;;
73283;SDS011;61519;60.050;18.582;2024-03-23T15:16:59;7.20;;;1.70;;
73283;SDS011;61519;60.050;18.582;2024-03-23T15:19:29;7.68;;;1.60;;
73283;SDS011;61519;60.050;18.582;2024-03-23T15:21:55;13.53;;;2.20;;
73283;SDS011;61519;60.050;18.582;2024-03-23T15:24:21;10.15;;;2.13;;
73283;SDS011;61519;60.050;18.582;2024-03-23T15:26:46;10.07;;;1.30;;
73283;SDS011;61519;60.050;18.582;2024-03-23T15:29:12;7.13;;;1.47;;